Terminal Aerodrome Forecast
Issued by NWS Wakefield, VA

Home | Current Version | Previous Version | Text Only | Print | Product List | Glossary On
Versions: 1 2 3 4 5 6 7 8 9 10 11 12 13 14 15 16 17 18 19 20 21 22 23
034
FTUS41 KAKQ 101142 RRB
TAFSBY
TAF
KSBY 101142Z 1012/1112 28008KT 4SM -SN BR SCT010 OVC040
      TEMPO 1012/1013 1SM -SN BR BKN008
     FM101400 28013G20KT P6SM BKN050
     FM110000 29009KT P6SM OVC050
     FM110900 29011KT P6SM SKC=

USA.gov is the U.S. government's official web portal to all federal, state and local government web resources and services.